sensor_id;sensor_type;location;lat;lon;timestamp;pressure;altitude;pressure_sealevel;temperature;humidity
7730;BME280;3908;52.310;7.230;2023-02-07T00:00:26;51346.53;;;-145.83;100.00
7730;BME280;3908;52.310;7.230;2023-02-07T00:03:14;51370.03;;;-145.83;100.00
7730;BME280;3908;52.310;7.230;2023-02-07T00:06:05;51305.47;;;-145.83;100.00
7730;BME280;3908;52.310;7.230;2023-02-07T00:08:53;51299.59;;;-145.83;100.00
7730;BME280;3908;52.310;7.230;2023-02-07T00:11:41;51297.63;;;-145.83;100.00
7730;BME280;3908;52.310;7.230;2023-02-07T00:14:28;51358.28;;;-145.83;100.00
7730;BME280;3908;52.310;7.230;2023-02-07T00:17:15;51334.81;;;-145.83;100.00
7730;BME280;3908;52.310;7.230;2023-02-07T00:20:03;51346.53;;;-145.83;100.00
7730;BME280;3908;52.310;7.230;2023-02-07T00:22:50;51350.47;;;-145.83;100.00
7730;BME280;3908;52.310;7.230;2023-02-07T00:25:44;51366.09;;;-145.83;100.00
7730;BME280;3908;52.310;7.230;2023-02-07T00:28:31;51293.72;;;-145.83;100.00
7730;BME280;3908;52.310;7.230;2023-02-07T00:31:21;51326.97;;;-145.83;100.00
7730;BME280;3908;52.310;7.230;2023-02-07T00:34:10;51334.81;;;-145.83;100.00
7730;BME280;3908;52.310;7.230;2023-02-07T00:36:57;51319.16;;;-145.83;100.00
7730;BME280;3908;52.310;7.230;2023-02-07T00:39:44;51338.72;;;-145.83;100.00
7730;BME280;3908;52.310;7.230;2023-02-07T00:42:36;51319.16;;;-145.83;100.00
7730;BME280;3908;52.310;7.230;2023-02-07T00:45:23;51313.28;;;-145.83;100.00
7730;BME280;3908;52.310;7.230;2023-02-07T00:48:10;51336.75;;;-145.83;100.00
7730;BME280;3908;52.310;7.230;2023-02-07T00:50:57;51346.53;;;-145.83;100.00
7730;BME280;3908;52.310;7.230;2023-02-07T00:53:44;51330.91;;;-145.83;100.00
7730;BME280;3908;52.310;7.230;2023-02-07T00:56:33;51307.41;;;-145.83;100.00
7730;BME280;3908;52.310;7.230;2023-02-07T00:59:21;51362.19;;;-145.83;100.00
7730;BME280;3908;52.310;7.230;2023-02-07T01:02:08;51315.25;;;-145.83;100.00
7730;BME280;3908;52.310;7.230;2023-02-07T01:04:55;51338.72;;;-145.83;100.00
7730;BME280;3908;52.310;7.230;2023-02-07T01:07:44;51326.97;;;-145.83;100.00
7730;BME280;3908;52.310;7.230;2023-02-07T01:10:32;51325.03;;;-145.83;100.00
7730;BME280;3908;52.310;7.230;2023-02-07T01:13:19;51317.19;;;-145.83;100.00
7730;BME280;3908;52.310;7.230;2023-02-07T01:16:16;51332.84;;;-145.83;100.00
7730;BME280;3908;52.310;7.230;2023-02-07T01:19:05;51330.91;;;-145.83;100.00
7730;BME280;3908;52.310;7.230;2023-02-07T01:21:52;51319.16;;;-145.83;100.00
7730;BME280;3908;52.310;7.230;2023-02-07T01:24:39;51330.91;;;-145.83;100.00
7730;BME280;3908;52.310;7.230;2023-02-07T01:27:26;51291.75;;;-145.83;100.00
7730;BME280;3908;52.310;7.230;2023-02-07T01:30:13;51336.75;;;-145.83;100.00
7730;BME280;3908;52.310;7.230;2023-02-07T01:33:02;51336.75;;;-145.83;100.00
7730;BME280;3908;52.310;7.230;2023-02-07T01:35:49;51342.63;;;-145.83;100.00
7730;BME280;3908;52.310;7.230;2023-02-07T01:38:36;51332.84;;;-145.83;100.00
7730;BME280;3908;52.310;7.230;2023-02-07T01:41:25;51326.97;;;-145.83;100.00
7730;BME280;3908;52.310;7.230;2023-02-07T01:47:33;51336.75;;;-145.83;100.00
7730;BME280;3908;52.310;7.230;2023-02-07T01:50:23;51319.16;;;-145.83;100.00
7730;BME280;3908;52.310;7.230;2023-02-07T01:53:11;51311.31;;;-145.83;100.00
7730;BME280;3908;52.310;7.230;2023-02-07T01:56:02;51291.75;;;-145.83;100.00
7730;BME280;3908;52.310;7.230;2023-02-07T01:58:52;51358.28;;;-145.83;100.00
7730;BME280;3908;52.310;7.230;2023-02-07T02:01:46;51321.09;;;-145.83;100.00
7730;BME280;3908;52.310;7.230;2023-02-07T02:04:33;51330.91;;;-145.83;100.00
7730;BME280;3908;52.310;7.230;2023-02-07T02:07:23;51293.72;;;-145.83;100.00
7730;BME280;3908;52.310;7.230;2023-02-07T02:10:15;51313.28;;;-145.83;100.00
7730;BME280;3908;52.310;7.230;2023-02-07T02:13:17;51325.03;;;-145.83;100.00
7730;BME280;3908;52.310;7.230;2023-02-07T02:16:15;51309.38;;;-145.83;100.00
7730;BME280;3908;52.310;7.230;2023-02-07T02:19:37;51291.75;;;-145.83;100.00
7730;BME280;3908;52.310;7.230;2023-02-07T02:29:36;51319.16;;;-145.83;100.00
7730;BME280;3908;52.310;7.230;2023-02-07T02:33:03;51301.53;;;-145.83;100.00
7730;BME280;3908;52.310;7.230;2023-02-07T02:36:01;51321.09;;;-145.83;100.00
7730;BME280;3908;52.310;7.230;2023-02-07T02:38:56;51254.59;;;-145.83;100.00
7730;BME280;3908;52.310;7.230;2023-02-07T02:41:48;51313.28;;;-145.83;100.00
7730;BME280;3908;52.310;7.230;2023-02-07T02:44:47;51301.53;;;-145.83;100.00
7730;BME280;3908;52.310;7.230;2023-02-07T02:47:39;51287.84;;;-145.83;100.00
7730;BME280;3908;52.310;7.230;2023-02-07T02:50:33;51325.03;;;-145.83;100.00
7730;BME280;3908;52.310;7.230;2023-02-07T02:53:21;51336.75;;;-145.83;100.00
7730;BME280;3908;52.310;7.230;2023-02-07T02:59:38;51315.25;;;-145.83;100.00
7730;BME280;3908;52.310;7.230;2023-02-07T03:02:37;51315.25;;;-145.83;100.00
7730;BME280;3908;52.310;7.230;2023-02-07T03:05:37;51340.69;;;-145.83;100.00
7730;BME280;3908;52.310;7.230;2023-02-07T03:08:34;51321.09;;;-145.83;100.00
7730;BME280;3908;52.310;7.230;2023-02-07T03:11:33;51285.91;;;-145.83;100.00
7730;BME280;3908;52.310;7.230;2023-02-07T03:14:28;51309.38;;;-145.83;100.00
7730;BME280;3908;52.310;7.230;2023-02-07T03:17:20;51299.59;;;-145.83;100.00
7730;BME280;3908;52.310;7.230;2023-02-07T03:20:15;51293.72;;;-145.83;100.00
7730;BME280;3908;52.310;7.230;2023-02-07T03:23:07;51299.59;;;-145.83;100.00
7730;BME280;3908;52.310;7.230;2023-02-07T03:25:59;51305.47;;;-145.83;100.00
7730;BME280;3908;52.310;7.230;2023-02-07T03:28:48;51313.28;;;-145.83;100.00
7730;BME280;3908;52.310;7.230;2023-02-07T03:31:39;51328.94;;;-145.83;100.00
7730;BME280;3908;52.310;7.230;2023-02-07T03:34:32;51307.41;;;-145.83;100.00
7730;BME280;3908;52.310;7.230;2023-02-07T03:37:23;51305.47;;;-145.83;100.00
7730;BME280;3908;52.310;7.230;2023-02-07T03:40:13;51323.06;;;-145.83;100.00
7730;BME280;3908;52.310;7.230;2023-02-07T03:43:04;51332.84;;;-145.83;100.00
7730;BME280;3908;52.310;7.230;2023-02-07T03:45:53;51315.25;;;-145.83;100.00
7730;BME280;3908;52.310;7.230;2023-02-07T03:48:43;51323.06;;;-145.83;100.00
7730;BME280;3908;52.310;7.230;2023-02-07T03:51:32;51319.16;;;-145.83;100.00
7730;BME280;3908;52.310;7.230;2023-02-07T03:54:20;51293.72;;;-145.83;100.00
7730;BME280;3908;52.310;7.230;2023-02-07T03:57:08;51311.31;;;-145.83;100.00
7730;BME280;3908;52.310;7.230;2023-02-07T03:59:55;51323.06;;;-145.83;100.00
7730;BME280;3908;52.310;7.230;2023-02-07T04:02:43;51313.28;;;-145.83;100.00
7730;BME280;3908;52.310;7.230;2023-02-07T04:05:31;51348.50;;;-145.83;100.00
7730;BME280;3908;52.310;7.230;2023-02-07T04:08:18;51301.53;;;-145.83;100.00
7730;BME280;3908;52.310;7.230;2023-02-07T04:11:06;51315.25;;;-145.83;100.00
7730;BME280;3908;52.310;7.230;2023-02-07T04:13:58;51323.06;;;-145.83;100.00
7730;BME280;3908;52.310;7.230;2023-02-07T04:16:45;51293.72;;;-145.83;100.00
7730;BME280;3908;52.310;7.230;2023-02-07T04:19:32;51289.81;;;-145.83;100.00
7730;BME280;3908;52.310;7.230;2023-02-07T04:22:19;51319.16;;;-145.83;100.00
7730;BME280;3908;52.310;7.230;2023-02-07T04:25:07;51299.59;;;-145.83;100.00
7730;BME280;3908;52.310;7.230;2023-02-07T04:27:54;51299.59;;;-145.83;100.00
7730;BME280;3908;52.310;7.230;2023-02-07T04:30:42;51291.75;;;-145.83;100.00
7730;BME280;3908;52.310;7.230;2023-02-07T04:33:33;51315.25;;;-145.83;100.00
7730;BME280;3908;52.310;7.230;2023-02-07T04:36:21;51309.38;;;-145.83;100.00
7730;BME280;3908;52.310;7.230;2023-02-07T04:39:09;51305.47;;;-145.83;100.00
7730;BME280;3908;52.310;7.230;2023-02-07T04:41:57;51323.06;;;-145.83;100.00
7730;BME280;3908;52.310;7.230;2023-02-07T04:44:44;51262.44;;;-145.83;100.00
7730;BME280;3908;52.310;7.230;2023-02-07T04:47:33;51307.41;;;-145.83;100.00
7730;BME280;3908;52.310;7.230;2023-02-07T04:50:20;51330.91;;;-145.83;100.00
7730;BME280;3908;52.310;7.230;2023-02-07T04:53:09;51325.03;;;-145.83;100.00
7730;BME280;3908;52.310;7.230;2023-02-07T04:55:57;51289.81;;;-145.83;100.00
7730;BME280;3908;52.310;7.230;2023-02-07T04:58:44;51276.13;;;-145.83;100.00
7730;BME280;3908;52.310;7.230;2023-02-07T05:01:31;51285.91;;;-145.83;100.00
7730;BME280;3908;52.310;7.230;2023-02-07T05:04:23;51289.81;;;-145.83;100.00
7730;BME280;3908;52.310;7.230;2023-02-07T05:07:12;51276.13;;;-145.83;100.00
7730;BME280;3908;52.310;7.230;2023-02-07T05:09:59;51295.69;;;-145.83;100.00
7730;BME280;3908;52.310;7.230;2023-02-07T05:12:47;51281.97;;;-145.83;100.00
7730;BME280;3908;52.310;7.230;2023-02-07T05:15:34;51285.91;;;-145.83;100.00
7730;BME280;3908;52.310;7.230;2023-02-07T05:18:21;51287.84;;;-145.83;100.00
7730;BME280;3908;52.310;7.230;2023-02-07T05:21:10;51246.78;;;-145.83;100.00
7730;BME280;3908;52.310;7.230;2023-02-07T05:23:57;51297.63;;;-145.83;100.00
7730;BME280;3908;52.310;7.230;2023-02-07T05:26:44;51305.47;;;-145.83;100.00
7730;BME280;3908;52.310;7.230;2023-02-07T05:29:32;51235.03;;;-145.83;100.00
7730;BME280;3908;52.310;7.230;2023-02-07T05:32:19;51280.03;;;-145.83;100.00
7730;BME280;3908;52.310;7.230;2023-02-07T05:35:24;51278.06;;;-145.83;100.00
7730;BME280;3908;52.310;7.230;2023-02-07T05:38:14;51307.41;;;-145.83;100.00
7730;BME280;3908;52.310;7.230;2023-02-07T05:41:01;51264.38;;;-145.83;100.00
7730;BME280;3908;52.310;7.230;2023-02-07T05:43:49;51285.91;;;-145.83;100.00
7730;BME280;3908;52.310;7.230;2023-02-07T05:46:36;51307.41;;;-145.83;100.00
7730;BME280;3908;52.310;7.230;2023-02-07T05:49:23;51274.16;;;-145.83;100.00
7730;BME280;3908;52.310;7.230;2023-02-07T05:52:14;51293.72;;;-145.83;100.00
7730;BME280;3908;52.310;7.230;2023-02-07T05:55:03;51307.41;;;-145.83;100.00
7730;BME280;3908;52.310;7.230;2023-02-07T05:57:53;51283.94;;;-145.83;100.00
7730;BME280;3908;52.310;7.230;2023-02-07T06:00:40;51295.69;;;-145.83;100.00
7730;BME280;3908;52.310;7.230;2023-02-07T06:03:28;51299.59;;;-145.83;100.00
7730;BME280;3908;52.310;7.230;2023-02-07T06:06:15;51287.84;;;-145.83;100.00
7730;BME280;3908;52.310;7.230;2023-02-07T06:09:02;51260.47;;;-145.83;100.00
7730;BME280;3908;52.310;7.230;2023-02-07T06:11:51;51321.09;;;-145.83;100.00
7730;BME280;3908;52.310;7.230;2023-02-07T06:14:40;51313.28;;;-145.83;100.00
7730;BME280;3908;52.310;7.230;2023-02-07T06:17:37;51287.84;;;-145.83;100.00
7730;BME280;3908;52.310;7.230;2023-02-07T06:20:24;51278.06;;;-145.83;100.00
7730;BME280;3908;52.310;7.230;2023-02-07T06:23:11;51268.28;;;-145.83;100.00
7730;BME280;3908;52.310;7.230;2023-02-07T06:25:58;51295.69;;;-145.83;100.00
7730;BME280;3908;52.310;7.230;2023-02-07T06:28:47;51272.22;;;-145.83;100.00
7730;BME280;3908;52.310;7.230;2023-02-07T06:31:34;51297.63;;;-145.83;100.00
7730;BME280;3908;52.310;7.230;2023-02-07T06:34:23;51281.97;;;-145.83;100.00
7730;BME280;3908;52.310;7.230;2023-02-07T06:37:11;51305.47;;;-145.83;100.00
7730;BME280;3908;52.310;7.230;2023-02-07T06:39:58;51289.81;;;-145.83;100.00
7730;BME280;3908;52.310;7.230;2023-02-07T06:42:45;51278.06;;;-145.83;100.00
7730;BME280;3908;52.310;7.230;2023-02-07T06:45:34;51293.72;;;-145.83;100.00
7730;BME280;3908;52.310;7.230;2023-02-07T06:48:21;51311.31;;;-145.83;100.00
7730;BME280;3908;52.310;7.230;2023-02-07T06:51:08;51307.41;;;-145.83;100.00
7730;BME280;3908;52.310;7.230;2023-02-07T06:53:56;51289.81;;;-145.83;100.00
7730;BME280;3908;52.310;7.230;2023-02-07T06:56:44;51278.06;;;-145.83;100.00
7730;BME280;3908;52.310;7.230;2023-02-07T06:59:31;51313.28;;;-145.83;100.00
7730;BME280;3908;52.310;7.230;2023-02-07T07:02:23;51252.66;;;-145.83;100.00
7730;BME280;3908;52.310;7.230;2023-02-07T07:05:10;51315.25;;;-145.83;100.00
7730;BME280;3908;52.310;7.230;2023-02-07T07:07:57;51315.25;;;-145.83;100.00
7730;BME280;3908;52.310;7.230;2023-02-07T07:10:44;51272.22;;;-145.83;100.00
7730;BME280;3908;52.310;7.230;2023-02-07T07:13:32;51317.19;;;-145.83;100.00
7730;BME280;3908;52.310;7.230;2023-02-07T07:16:19;51289.81;;;-145.83;100.00
7730;BME280;3908;52.310;7.230;2023-02-07T07:19:08;51272.22;;;-145.83;100.00
7730;BME280;3908;52.310;7.230;2023-02-07T07:21:55;51283.94;;;-145.83;100.00
7730;BME280;3908;52.310;7.230;2023-02-07T07:24:43;51309.38;;;-145.83;100.00
7730;BME280;3908;52.310;7.230;2023-02-07T07:27:33;51295.69;;;-145.83;100.00
7730;BME280;3908;52.310;7.230;2023-02-07T07:30:22;51313.28;;;-145.83;100.00
7730;BME280;3908;52.310;7.230;2023-02-07T07:33:09;51315.25;;;-145.83;100.00
7730;BME280;3908;52.310;7.230;2023-02-07T07:35:58;51315.25;;;-145.83;100.00
7730;BME280;3908;52.310;7.230;2023-02-07T07:38:45;51311.31;;;-145.83;100.00
7730;BME280;3908;52.310;7.230;2023-02-07T07:41:32;51319.16;;;-145.83;100.00
7730;BME280;3908;52.310;7.230;2023-02-07T07:44:19;51293.72;;;-145.83;100.00
7730;BME280;3908;52.310;7.230;2023-02-07T07:47:06;51321.09;;;-145.83;100.00
7730;BME280;3908;52.310;7.230;2023-02-07T07:49:53;51278.06;;;-145.83;100.00
7730;BME280;3908;52.310;7.230;2023-02-07T07:52:42;51260.47;;;-145.83;100.00
7730;BME280;3908;52.310;7.230;2023-02-07T07:55:32;51325.03;;;-145.83;100.00
7730;BME280;3908;52.310;7.230;2023-02-07T07:58:20;51285.91;;;-145.83;100.00
7730;BME280;3908;52.310;7.230;2023-02-07T08:01:07;51323.06;;;-145.83;100.00
7730;BME280;3908;52.310;7.230;2023-02-07T08:03:54;51346.53;;;-145.83;100.00
7730;BME280;3908;52.310;7.230;2023-02-07T08:06:41;51348.50;;;-145.83;100.00
7730;BME280;3908;52.310;7.230;2023-02-07T08:09:30;51283.94;;;-145.83;100.00
7730;BME280;3908;52.310;7.230;2023-02-07T08:12:17;51283.94;;;-145.83;100.00
7730;BME280;3908;52.310;7.230;2023-02-07T08:15:04;51272.22;;;-145.83;100.00
7730;BME280;3908;52.310;7.230;2023-02-07T08:17:54;51317.19;;;-145.83;100.00
7730;BME280;3908;52.310;7.230;2023-02-07T08:20:41;51348.50;;;-145.83;100.00
7730;BME280;3908;52.310;7.230;2023-02-07T08:23:28;51334.81;;;-145.83;100.00
7730;BME280;3908;52.310;7.230;2023-02-07T08:26:17;51315.25;;;-145.83;100.00
7730;BME280;3908;52.310;7.230;2023-02-07T08:29:04;51330.91;;;-145.83;100.00
7730;BME280;3908;52.310;7.230;2023-02-07T08:31:51;51334.81;;;-145.83;100.00
7730;BME280;3908;52.310;7.230;2023-02-07T08:34:41;51305.47;;;-145.83;100.00
7730;BME280;3908;52.310;7.230;2023-02-07T08:37:30;51334.81;;;-145.83;100.00
7730;BME280;3908;52.310;7.230;2023-02-07T08:40:17;51364.16;;;-145.83;100.00
7730;BME280;3908;52.310;7.230;2023-02-07T08:43:06;51338.72;;;-145.83;100.00
7730;BME280;3908;52.310;7.230;2023-02-07T08:45:56;51350.47;;;-145.83;100.00
7730;BME280;3908;52.310;7.230;2023-02-07T08:48:45;51326.97;;;-145.83;100.00
7730;BME280;3908;52.310;7.230;2023-02-07T08:51:32;51338.72;;;-145.83;100.00
7730;BME280;3908;52.310;7.230;2023-02-07T08:54:21;51325.03;;;-145.83;100.00
7730;BME280;3908;52.310;7.230;2023-02-07T08:57:08;51370.03;;;-145.83;100.00
7730;BME280;3908;52.310;7.230;2023-02-07T08:59:57;51350.47;;;-145.83;100.00
7730;BME280;3908;52.310;7.230;2023-02-07T09:02:44;51346.53;;;-145.83;100.00
7730;BME280;3908;52.310;7.230;2023-02-07T09:05:31;51356.31;;;-145.83;100.00
7730;BME280;3908;52.310;7.230;2023-02-07T09:08:18;51375.88;;;-145.83;100.00
7730;BME280;3908;52.310;7.230;2023-02-07T09:11:05;51354.38;;;-145.83;100.00
7730;BME280;3908;52.310;7.230;2023-02-07T09:13:52;51342.63;;;-145.83;100.00
7730;BME280;3908;52.310;7.230;2023-02-07T09:16:41;51395.44;;;-145.83;100.00
7730;BME280;3908;52.310;7.230;2023-02-07T09:19:28;51342.63;;;-145.83;100.00
7730;BME280;3908;52.310;7.230;2023-02-07T09:22:15;51418.94;;;-145.83;100.00
7730;BME280;3908;52.310;7.230;2023-02-07T09:25:02;51342.63;;;-145.83;100.00
7730;BME280;3908;52.310;7.230;2023-02-07T09:27:50;51373.94;;;-145.83;100.00
7730;BME280;3908;52.310;7.230;2023-02-07T09:30:39;51385.66;;;-145.83;100.00
7730;BME280;3908;52.310;7.230;2023-02-07T09:33:27;51379.81;;;-145.83;100.00
7730;BME280;3908;52.310;7.230;2023-02-07T09:36:18;51387.63;;;-145.83;100.00
7730;BME280;3908;52.310;7.230;2023-02-07T09:39:05;51373.94;;;-145.83;100.00
7730;BME280;3908;52.310;7.230;2023-02-07T09:41:58;51383.72;;;-145.83;100.00
7730;BME280;3908;52.310;7.230;2023-02-07T09:44:56;51399.38;;;-145.83;100.00
7730;BME280;3908;52.310;7.230;2023-02-07T09:47:48;51381.75;;;-145.83;100.00
7730;BME280;3908;52.310;7.230;2023-02-07T09:50:42;51377.84;;;-145.83;100.00
7730;BME280;3908;52.310;7.230;2023-02-07T09:53:40;51370.03;;;-145.83;100.00
7730;BME280;3908;52.310;7.230;2023-02-07T09:56:30;51395.44;;;-145.83;100.00
7730;BME280;3908;52.310;7.230;2023-02-07T09:59:22;51399.38;;;-145.83;100.00
7730;BME280;3908;52.310;7.230;2023-02-07T10:02:16;51370.03;;;-145.83;100.00
7730;BME280;3908;52.310;7.230;2023-02-07T10:05:11;51370.03;;;-145.83;100.00
7730;BME280;3908;52.310;7.230;2023-02-07T10:08:02;51403.28;;;-145.83;100.00
7730;BME280;3908;52.310;7.230;2023-02-07T10:10:56;51405.22;;;-145.83;100.00
7730;BME280;3908;52.310;7.230;2023-02-07T10:14:00;51385.66;;;-145.83;100.00
7730;BME280;3908;52.310;7.230;2023-02-07T10:17:04;51428.72;;;-145.83;99.30
7730;BME280;3908;52.310;7.230;2023-02-07T10:20:02;51377.84;;;-145.83;99.86
7730;BME280;3908;52.310;7.230;2023-02-07T10:22:57;51411.09;;;-145.83;98.58
7730;BME280;3908;52.310;7.230;2023-02-07T10:25:56;51432.63;;;-145.83;97.82
7730;BME280;3908;52.310;7.230;2023-02-07T10:28:59;51381.75;;;-145.83;96.69
7730;BME280;3908;52.310;7.230;2023-02-07T10:31:53;51387.63;;;-145.83;96.83
7730;BME280;3908;52.310;7.230;2023-02-07T10:34:44;51428.72;;;-145.83;96.90
7730;BME280;3908;52.310;7.230;2023-02-07T10:37:36;51450.22;;;-145.83;95.64
7730;BME280;3908;52.310;7.230;2023-02-07T10:40:26;51391.53;;;-145.83;94.94
7730;BME280;3908;52.310;7.230;2023-02-07T10:43:24;51381.75;;;-145.83;93.16
7730;BME280;3908;52.310;7.230;2023-02-07T10:46:14;51409.16;;;-145.83;93.10
7730;BME280;3908;52.310;7.230;2023-02-07T10:49:02;51387.63;;;-145.83;92.21
7730;BME280;3908;52.310;7.230;2023-02-07T10:51:50;51397.41;;;-145.83;92.68
7730;BME280;3908;52.310;7.230;2023-02-07T10:54:49;51418.94;;;-145.83;89.67
7730;BME280;3908;52.310;7.230;2023-02-07T10:57:37;51438.50;;;-145.83;90.32
7730;BME280;3908;52.310;7.230;2023-02-07T11:00:28;51422.84;;;-145.83;92.61
7730;BME280;3908;52.310;7.230;2023-02-07T11:03:17;51395.44;;;-145.83;87.93
7730;BME280;3908;52.310;7.230;2023-02-07T11:06:05;51387.63;;;-145.83;87.25
7730;BME280;3908;52.310;7.230;2023-02-07T11:09:19;51428.72;;;-145.83;88.09
7730;BME280;3908;52.310;7.230;2023-02-07T11:12:13;51442.41;;;-145.83;85.64
7730;BME280;3908;52.310;7.230;2023-02-07T11:15:03;51368.06;;;-145.83;85.64
7730;BME280;3908;52.310;7.230;2023-02-07T11:17:55;51362.19;;;-145.83;84.89
7730;BME280;3908;52.310;7.230;2023-02-07T11:20:48;51432.63;;;-145.83;82.30
7730;BME280;3908;52.310;7.230;2023-02-07T11:23:42;51438.50;;;-145.83;82.12
7730;BME280;3908;52.310;7.230;2023-02-07T11:26:30;51422.84;;;-145.83;83.30
7730;BME280;3908;52.310;7.230;2023-02-07T11:29:20;51416.97;;;-145.83;85.10
7730;BME280;3908;52.310;7.230;2023-02-07T11:32:12;51424.78;;;-145.83;85.86
7730;BME280;3908;52.310;7.230;2023-02-07T11:35:03;51442.41;;;-145.83;83.84
7730;BME280;3908;52.310;7.230;2023-02-07T11:38:04;51393.50;;;-145.83;85.78
7730;BME280;3908;52.310;7.230;2023-02-07T11:40:59;51467.84;;;-145.83;83.24
7730;BME280;3908;52.310;7.230;2023-02-07T11:43:57;51416.97;;;-145.83;82.63
7730;BME280;3908;52.310;7.230;2023-02-07T11:46:46;51430.66;;;-145.83;82.67
7730;BME280;3908;52.310;7.230;2023-02-07T11:49:40;51401.31;;;-145.83;82.12
7730;BME280;3908;52.310;7.230;2023-02-07T11:52:30;51420.88;;;-145.83;84.71
7730;BME280;3908;52.310;7.230;2023-02-07T11:55:21;51428.72;;;-145.83;81.96
7730;BME280;3908;52.310;7.230;2023-02-07T11:58:16;51461.97;;;-145.83;85.68
7730;BME280;3908;52.310;7.230;2023-02-07T12:01:07;51416.97;;;-145.83;87.42
7730;BME280;3908;52.310;7.230;2023-02-07T12:03:57;51413.06;;;-145.83;80.79
7730;BME280;3908;52.310;7.230;2023-02-07T12:06:50;51430.66;;;-145.83;82.22
7730;BME280;3908;52.310;7.230;2023-02-07T12:09:42;51436.53;;;-145.83;81.99
7730;BME280;3908;52.310;7.230;2023-02-07T12:12:38;51387.63;;;-145.83;80.75
7730;BME280;3908;52.310;7.230;2023-02-07T12:15:30;51364.16;;;-145.83;77.58
7730;BME280;3908;52.310;7.230;2023-02-07T12:18:25;51381.75;;;-145.83;71.07
7730;BME280;3908;52.310;7.230;2023-02-07T12:21:18;51460.00;;;-145.83;69.32
7730;BME280;3908;52.310;7.230;2023-02-07T12:24:13;51428.72;;;-145.83;69.39
7730;BME280;3908;52.310;7.230;2023-02-07T12:27:05;51424.78;;;-145.83;69.31
7730;BME280;3908;52.310;7.230;2023-02-07T12:30:01;51438.50;;;-145.83;69.59
7730;BME280;3908;52.310;7.230;2023-02-07T12:32:58;51409.16;;;-145.83;69.91
7730;BME280;3908;52.310;7.230;2023-02-07T12:35:59;51381.75;;;-145.83;70.59
7730;BME280;3908;52.310;7.230;2023-02-07T12:38:53;51413.06;;;-145.83;70.19
7730;BME280;3908;52.310;7.230;2023-02-07T12:41:45;51428.72;;;-145.83;71.18
7730;BME280;3908;52.310;7.230;2023-02-07T12:44:39;51442.41;;;-145.83;71.54
7730;BME280;3908;52.310;7.230;2023-02-07T12:47:41;51458.06;;;-145.83;70.35
7730;BME280;3908;52.310;7.230;2023-02-07T12:50:45;51415.00;;;-145.83;67.63
7730;BME280;3908;52.310;7.230;2023-02-07T12:53:49;51393.50;;;-145.83;69.13
7730;BME280;3908;52.310;7.230;2023-02-07T12:56:45;51405.22;;;-145.83;64.75
7730;BME280;3908;52.310;7.230;2023-02-07T12:59:48;51424.78;;;-145.83;66.94
7730;BME280;3908;52.310;7.230;2023-02-07T13:02:48;51411.09;;;-145.83;67.25
7730;BME280;3908;52.310;7.230;2023-02-07T13:05:53;51413.06;;;-145.83;66.88
7730;BME280;3908;52.310;7.230;2023-02-07T13:08:54;51422.84;;;-145.83;65.16
7730;BME280;3908;52.310;7.230;2023-02-07T13:11:51;51428.72;;;-145.83;64.73
7730;BME280;3908;52.310;7.230;2023-02-07T13:14:55;51393.50;;;-145.83;64.39
7730;BME280;3908;52.310;7.230;2023-02-07T13:17:52;51426.75;;;-145.83;65.67
7730;BME280;3908;52.310;7.230;2023-02-07T13:20:50;51385.66;;;-145.83;65.55
7730;BME280;3908;52.310;7.230;2023-02-07T13:23:42;51438.50;;;-145.83;66.59
7730;BME280;3908;52.310;7.230;2023-02-07T13:26:34;51403.28;;;-145.83;65.92
7730;BME280;3908;52.310;7.230;2023-02-07T13:29:22;51391.53;;;-145.83;66.14
7730;BME280;3908;52.310;7.230;2023-02-07T13:32:16;51458.06;;;-145.83;69.30
7730;BME280;3908;52.310;7.230;2023-02-07T13:35:06;51436.53;;;-145.83;64.02
7730;BME280;3908;52.310;7.230;2023-02-07T13:38:03;51405.22;;;-145.83;69.03
7730;BME280;3908;52.310;7.230;2023-02-07T13:40:56;51395.44;;;-145.83;65.34
7730;BME280;3908;52.310;7.230;2023-02-07T13:43:57;51356.31;;;-145.83;68.70
7730;BME280;3908;52.310;7.230;2023-02-07T13:47:25;51373.94;;;-145.83;69.97
7730;BME280;3908;52.310;7.230;2023-02-07T13:50:28;51413.06;;;-145.83;69.45
7730;BME280;3908;52.310;7.230;2023-02-07T13:53:31;51370.03;;;-145.83;67.78
7730;BME280;3908;52.310;7.230;2023-02-07T13:56:29;51432.63;;;-145.83;65.48
7730;BME280;3908;52.310;7.230;2023-02-07T13:59:35;51393.50;;;-145.83;63.89
7730;BME280;3908;52.310;7.230;2023-02-07T14:02:28;51405.22;;;-145.83;64.39
7730;BME280;3908;52.310;7.230;2023-02-07T14:05:23;51371.97;;;-145.83;68.94
7730;BME280;3908;52.310;7.230;2023-02-07T14:08:21;51387.63;;;-145.83;66.94
7730;BME280;3908;52.310;7.230;2023-02-07T14:11:24;51403.28;;;-145.83;66.86
7730;BME280;3908;52.310;7.230;2023-02-07T14:14:21;51420.88;;;-145.83;66.60
7730;BME280;3908;52.310;7.230;2023-02-07T14:17:12;51373.94;;;-145.83;67.15
7730;BME280;3908;52.310;7.230;2023-02-07T14:20:04;51393.50;;;-145.83;66.29
7730;BME280;3908;52.310;7.230;2023-02-07T14:23:12;51371.97;;;-145.83;65.94
7730;BME280;3908;52.310;7.230;2023-02-07T14:26:00;51397.41;;;-145.83;67.00
7730;BME280;3908;52.310;7.230;2023-02-07T14:28:47;51356.31;;;-145.83;64.86
7730;BME280;3908;52.310;7.230;2023-02-07T14:31:34;51387.63;;;-145.83;65.29
7730;BME280;3908;52.310;7.230;2023-02-07T14:34:28;51370.03;;;-145.83;70.51
7730;BME280;3908;52.310;7.230;2023-02-07T14:37:21;51401.31;;;-145.83;68.46
7730;BME280;3908;52.310;7.230;2023-02-07T14:40:24;51401.31;;;-145.83;68.97
7730;BME280;3908;52.310;7.230;2023-02-07T14:43:18;51360.22;;;-145.83;66.87
7730;BME280;3908;52.310;7.230;2023-02-07T14:46:11;51371.97;;;-145.83;68.54
7730;BME280;3908;52.310;7.230;2023-02-07T14:49:02;51385.66;;;-145.83;67.60
7730;BME280;3908;52.310;7.230;2023-02-07T14:51:52;51399.38;;;-145.83;69.18
7730;BME280;3908;52.310;7.230;2023-02-07T14:54:45;51418.94;;;-145.83;67.36
7730;BME280;3908;52.310;7.230;2023-02-07T14:57:37;51352.41;;;-145.83;67.02
7730;BME280;3908;52.310;7.230;2023-02-07T15:00:32;51379.81;;;-145.83;68.82
7730;BME280;3908;52.310;7.230;2023-02-07T15:03:27;51391.53;;;-145.83;71.85
7730;BME280;3908;52.310;7.230;2023-02-07T15:06:17;51393.50;;;-145.83;74.22
7730;BME280;3908;52.310;7.230;2023-02-07T15:09:05;51381.75;;;-145.83;72.68
7730;BME280;3908;52.310;7.230;2023-02-07T15:12:03;51368.06;;;-145.83;76.27